Time;durP1;ratioP1;P1;durP2;ratioP2;P2;SDS_P1;SDS_P2;PMS_P1;PMS_P2;Temp;Humidity;BMP_temperature;BMP_pressure;BME280_temperature;BME280_humidity;BME280_pressure;Samples;Min_cycle;Max_cycle;Signal;HPM_P1;HPM_P2
2023/07/14 00:00:42;;;;;;;11.65;4.32;;;15.00;99.90;;;;;;5042275;28;20544;-79
2023/07/14 00:03:15;;;;;;;9.20;4.60;;;15.00;99.90;;;;;;5038426;28;20048;-75
2023/07/14 00:05:41;;;;;;;12.82;4.78;;;15.10;99.90;;;;;;5054251;28;20049;-93
2023/07/14 00:08:17;;;;;;;7.72;4.43;;;15.00;99.90;;;;;;5053486;28;20055;-90
2023/07/14 00:10:43;;;;;;;11.98;4.60;;;15.00;99.90;;;;;;5044964;28;20044;-90
2023/07/14 00:13:08;;;;;;;12.13;4.07;;;15.00;99.90;;;;;;5037091;28;20793;-85
2023/07/14 00:15:37;;;;;;;7.60;4.05;;;15.00;99.90;;;;;;5038584;28;20049;-83
2023/07/14 00:18:24;;;;;;;6.10;4.35;;;14.90;99.90;;;;;;5049373;28;20496;-85
2023/07/14 00:20:51;;;;;;;7.30;4.50;;;15.00;99.90;;;;;;5040731;28;20049;-92
2023/07/14 00:23:22;;;;;;;10.00;4.43;;;14.90;99.90;;;;;;5042169;28;20029;-92
2023/07/14 00:25:47;;;;;;;9.23;4.60;;;14.90;99.90;;;;;;5041542;28;20045;-82
2023/07/14 00:28:19;;;;;;;6.75;4.15;;;14.80;99.90;;;;;;5052655;28;20502;-83
2023/07/14 00:30:46;;;;;;;10.27;4.90;;;14.80;99.90;;;;;;5048106;28;20072;-90
2023/07/14 00:33:14;;;;;;;10.25;4.97;;;14.80;99.90;;;;;;5050612;28;20048;-95
2023/07/14 00:35:40;;;;;;;10.07;5.15;;;14.80;99.90;;;;;;5041071;28;20236;-76
2023/07/14 00:38:05;;;;;;;9.15;5.05;;;14.80;99.90;;;;;;5034086;28;20092;-81
2023/07/14 00:40:45;;;;;;;9.80;5.45;;;14.70;99.90;;;;;;5043344;28;20072;-85
2023/07/14 00:43:24;;;;;;;13.75;5.78;;;14.80;99.90;;;;;;5035650;28;20055;-91
2023/07/14 00:45:52;;;;;;;8.65;5.72;;;14.70;99.90;;;;;;5043346;28;20041;-86
2023/07/14 00:48:25;;;;;;;10.00;5.70;;;14.70;99.90;;;;;;5052180;28;20076;-94
2023/07/14 00:51:00;;;;;;;9.15;5.50;;;14.70;99.90;;;;;;5050307;28;20845;-91
2023/07/14 00:53:43;;;;;;;11.45;6.25;;;14.70;99.90;;;;;;5041573;28;20044;-92
2023/07/14 00:56:14;;;;;;;12.75;6.50;;;14.70;99.90;;;;;;5047790;28;20428;-92
2023/07/14 00:58:45;;;;;;;12.10;6.35;;;14.70;99.90;;;;;;5049809;28;20053;-80
2023/07/14 01:01:21;;;;;;;10.30;6.55;;;14.70;99.90;;;;;;5046268;28;20124;-91
2023/07/14 01:03:50;;;;;;;10.10;6.85;;;14.70;99.90;;;;;;5039675;28;20048;-88
2023/07/14 01:06:24;;;;;;;17.50;6.53;;;14.70;99.90;;;;;;5036851;28;20113;-79
2023/07/14 01:08:59;;;;;;;;;;;14.70;99.90;;;;;;5051321;28;20098;-83
2023/07/14 01:11:31;;;;;;;15.50;7.82;;;14.60;99.90;;;;;;5043713;28;19921;-81
2023/07/14 01:14:00;;;;;;;11.35;7.03;;;14.60;99.90;;;;;;5049354;28;20056;-79
2023/07/14 01:16:28;;;;;;;13.30;7.70;;;14.60;99.90;;;;;;5043736;28;20048;-71
2023/07/14 01:18:56;;;;;;;14.38;7.40;;;14.60;99.90;;;;;;5047553;28;20130;-71
2023/07/14 01:21:22;;;;;;;12.57;8.20;;;14.60;99.90;;;;;;5041839;28;20095;-74
2023/07/14 01:24:17;;;;;;;15.20;7.93;;;14.50;99.90;;;;;;5041186;28;20044;-72
2023/07/14 01:27:03;;;;;;;15.80;8.32;;;14.50;99.90;;;;;;5026841;28;20670;-71
2023/07/14 01:29:29;;;;;;;15.27;8.30;;;14.50;99.90;;;;;;5026531;28;20520;-70
2023/07/14 01:31:55;;;;;;;14.63;7.10;;;14.50;99.90;;;;;;5027561;28;20092;-71
2023/07/14 01:34:21;;;;;;;12.38;8.35;;;14.50;99.90;;;;;;5027911;28;20656;-72
2023/07/14 01:36:48;;;;;;;15.98;7.90;;;14.50;99.90;;;;;;5027961;28;20797;-75
2023/07/14 01:39:14;;;;;;;13.68;7.57;;;14.50;99.90;;;;;;5027908;28;20045;-72
2023/07/14 01:41:41;;;;;;;12.35;7.88;;;14.50;99.90;;;;;;5027704;28;20054;-72
2023/07/14 01:44:14;;;;;;;14.55;8.25;;;14.50;99.90;;;;;;5035314;28;20507;-89
2023/07/14 01:46:40;;;;;;;14.60;8.90;;;14.50;99.90;;;;;;5026970;28;20120;-92
2023/07/14 01:49:34;;;;;;;11.95;7.63;;;14.40;99.90;;;;;;5030990;28;20081;-95
2023/07/14 01:52:03;;;;;;;12.52;8.20;;;14.40;99.90;;;;;;5028144;28;20478;-91
2023/07/14 01:54:43;;;;;;;13.45;7.55;;;14.40;99.90;;;;;;5011995;28;20045;-82
2023/07/14 01:57:14;;;;;;;12.15;8.50;;;14.50;99.90;;;;;;5029842;28;20095;-92
2023/07/14 01:59:47;;;;;;;13.63;8.27;;;14.40;99.90;;;;;;4998239;28;20045;-86
2023/07/14 02:02:23;;;;;;;17.88;9.40;;;14.40;99.90;;;;;;5014305;28;20539;-84
2023/07/14 02:04:49;;;;;;;19.48;8.95;;;14.40;99.90;;;;;;5051414;28;20059;-90
2023/07/14 02:07:16;;;;;;;11.50;8.07;;;14.40;99.90;;;;;;5049407;28;20040;-93
2023/07/14 02:09:43;;;;;;;14.02;8.68;;;14.40;99.90;;;;;;5045954;28;20040;-94
2023/07/14 02:12:14;;;;;;;12.15;8.05;;;14.40;99.90;;;;;;5041688;28;20141;-88
2023/07/14 02:14:54;;;;;;;12.50;7.95;;;14.30;99.90;;;;;;5051340;28;20049;-83
2023/07/14 02:17:30;;;;;;;10.10;8.15;;;14.40;99.90;;;;;;5052829;28;20044;-75
2023/07/14 02:19:58;;;;;;;14.82;8.07;;;14.40;99.90;;;;;;5069365;28;20045;-92
2023/07/14 02:22:24;;;;;;;15.63;8.88;;;14.40;99.90;;;;;;5041130;28;20144;-84
2023/07/14 02:24:51;;;;;;;14.02;8.73;;;14.30;99.90;;;;;;5045719;28;20055;-88
2023/07/14 02:27:17;;;;;;;12.75;8.63;;;14.30;99.90;;;;;;5056153;28;20033;-87
2023/07/14 02:29:43;;;;;;;17.38;9.93;;;14.30;99.90;;;;;;5055234;28;20041;-88
2023/07/14 02:32:32;;;;;;;12.80;8.63;;;14.30;99.90;;;;;;5057956;28;20154;-85
2023/07/14 02:35:05;;;;;;;15.07;8.88;;;14.30;99.90;;;;;;5058840;28;20048;-82
2023/07/14 02:38:04;;;;;;;12.63;8.60;;;14.40;99.90;;;;;;5060114;28;20056;-91
2023/07/14 02:40:30;;;;;;;13.32;8.27;;;14.30;99.90;;;;;;5055019;28;20098;-83
2023/07/14 02:42:56;;;;;;;12.27;8.93;;;14.30;99.90;;;;;;5053830;28;20049;-91
2023/07/14 02:45:23;;;;;;;16.23;8.38;;;14.30;99.90;;;;;;5047260;28;20052;-94
2023/07/14 02:47:53;;;;;;;11.32;8.45;;;14.30;99.90;;;;;;5046546;28;20111;-89
2023/07/14 02:50:18;;;;;;;15.43;9.50;;;14.30;99.90;;;;;;5045866;28;20503;-91
2023/07/14 02:52:44;;;;;;;16.13;9.70;;;14.30;99.90;;;;;;5054008;28;20041;-82
2023/07/14 02:55:10;;;;;;;14.00;8.45;;;14.40;99.90;;;;;;5055934;28;20071;-94
2023/07/14 02:57:39;;;;;;;15.05;9.40;;;14.30;99.90;;;;;;5048706;28;20042;-96
2023/07/14 03:00:07;;;;;;;17.85;8.70;;;14.30;99.90;;;;;;5051884;28;20052;-91
2023/07/14 03:02:34;;;;;;;16.30;8.88;;;14.30;99.90;;;;;;5047952;28;20041;-93
2023/07/14 03:04:59;;;;;;;17.10;9.32;;;14.30;99.90;;;;;;5050524;28;20060;-89
2023/07/14 03:07:25;;;;;;;14.60;8.82;;;14.30;99.90;;;;;;5042725;28;20037;-91
2023/07/14 03:09:51;;;;;;;14.20;7.68;;;14.20;99.90;;;;;;5051745;28;20496;-93
2023/07/14 03:12:17;;;;;;;14.95;8.32;;;14.20;99.90;;;;;;5045255;28;20053;-88
2023/07/14 03:14:43;;;;;;;12.20;8.65;;;14.20;99.90;;;;;;5055494;28;20442;-92
2023/07/14 03:17:09;;;;;;;15.73;8.73;;;14.20;99.90;;;;;;5054371;28;20113;-72
2023/07/14 03:19:35;;;;;;;12.15;8.05;;;14.30;99.90;;;;;;5043654;28;20146;-91
2023/07/14 03:22:00;;;;;;;16.00;8.65;;;14.20;99.90;;;;;;5038270;28;20045;-94
2023/07/14 03:24:26;;;;;;;14.13;8.10;;;14.20;99.90;;;;;;5049438;28;20037;-88
2023/07/14 03:26:51;;;;;;;13.50;9.18;;;14.20;99.90;;;;;;5055300;28;20049;-94
2023/07/14 03:29:17;;;;;;;14.90;8.93;;;14.20;99.90;;;;;;5043599;28;20053;-95
2023/07/14 03:31:43;;;;;;;18.00;9.77;;;14.20;99.90;;;;;;5042083;28;20044;-91
2023/07/14 03:34:10;;;;;;;11.90;8.50;;;14.10;99.90;;;;;;5052031;28;20053;-96
2023/07/14 03:36:37;;;;;;;13.00;8.65;;;14.10;99.90;;;;;;5054615;28;20041;-91
2023/07/14 03:39:21;;;;;;;12.15;8.02;;;14.10;99.90;;;;;;5052588;28;20088;-92
2023/07/14 03:41:48;;;;;;;13.43;8.35;;;14.10;99.90;;;;;;5055621;28;20514;-93
2023/07/14 03:44:19;;;;;;;13.43;8.45;;;14.10;99.90;;;;;;5055632;28;20067;-93
2023/07/14 03:46:45;;;;;;;12.88;8.88;;;14.10;99.90;;;;;;5049802;28;20045;-72
2023/07/14 03:49:12;;;;;;;12.88;8.63;;;14.00;99.90;;;;;;5041575;28;20049;-72
2023/07/14 03:51:37;;;;;;;11.20;8.05;;;14.00;99.90;;;;;;5048445;28;20116;-71
2023/07/14 03:54:03;;;;;;;14.32;8.32;;;14.10;99.90;;;;;;5039934;28;20137;-71
2023/07/14 03:56:29;;;;;;;13.93;8.90;;;14.00;99.90;;;;;;5047272;28;20399;-70
2023/07/14 03:58:54;;;;;;;14.05;7.85;;;14.00;99.90;;;;;;5041620;28;20045;-87
2023/07/14 04:01:20;;;;;;;10.43;7.07;;;14.00;99.90;;;;;;5042480;28;20526;-76
2023/07/14 04:03:47;;;;;;;11.95;7.13;;;14.10;99.90;;;;;;5047688;28;20053;-83
2023/07/14 04:06:14;;;;;;;14.07;7.47;;;14.10;99.90;;;;;;5043953;28;20403;-82
2023/07/14 04:08:42;;;;;;;14.25;8.32;;;14.10;99.90;;;;;;5051235;28;20041;-76
2023/07/14 04:11:09;;;;;;;13.15;7.65;;;14.10;99.90;;;;;;5044928;28;20056;-87
2023/07/14 04:13:35;;;;;;;11.63;7.70;;;14.10;99.90;;;;;;5046493;28;20480;-87
2023/07/14 04:16:03;;;;;;;15.00;8.13;;;14.10;99.90;;;;;;5042806;28;20112;-73
2023/07/14 04:18:30;;;;;;;14.65;7.57;;;14.10;99.90;;;;;;5044270;28;20056;-80
2023/07/14 04:21:04;;;;;;;10.82;6.72;;;14.10;99.90;;;;;;5047668;28;20095;-87
2023/07/14 04:23:32;;;;;;;14.13;7.80;;;14.10;99.90;;;;;;5044685;28;20076;-75
2023/07/14 04:25:58;;;;;;;15.82;8.75;;;14.10;99.90;;;;;;5039250;28;20283;-85
2023/07/14 04:28:24;;;;;;;14.90;6.88;;;14.10;99.90;;;;;;5045674;28;20109;-80
2023/07/14 04:30:57;;;;;;;12.40;7.03;;;14.10;99.90;;;;;;5037080;28;20501;-79
2023/07/14 04:33:24;;;;;;;11.93;7.20;;;14.10;99.90;;;;;;5043232;28;20071;-76
2023/07/14 04:35:54;;;;;;;14.50;6.72;;;14.10;99.90;;;;;;5050479;28;20052;-77
2023/07/14 04:38:21;;;;;;;10.52;7.03;;;14.10;99.90;;;;;;5048484;28;20045;-86
2023/07/14 04:40:47;;;;;;;11.65;7.00;;;14.20;99.90;;;;;;5044154;28;20484;-87
2023/07/14 04:43:14;;;;;;;12.38;7.28;;;14.20;99.90;;;;;;5041823;28;20667;-81
2023/07/14 04:45:41;;;;;;;11.60;6.40;;;14.20;99.90;;;;;;5050846;28;20045;-79
2023/07/14 04:48:13;;;;;;;11.82;6.22;;;14.20;99.90;;;;;;5049262;28;20076;-74
2023/07/14 04:50:39;;;;;;;12.68;7.30;;;14.20;99.90;;;;;;5040605;28;20125;-89
2023/07/14 04:53:06;;;;;;;12.43;6.45;;;14.30;99.90;;;;;;5041418;28;20666;-84
2023/07/14 04:55:36;;;;;;;14.60;6.35;;;14.30;99.90;;;;;;5039867;28;20061;-84
2023/07/14 04:58:02;;;;;;;12.10;5.75;;;14.40;99.90;;;;;;5037566;28;20124;-82
2023/07/14 05:00:28;;;;;;;10.75;5.95;;;14.40;99.90;;;;;;5048886;28;20059;-89
2023/07/14 05:02:53;;;;;;;14.68;6.70;;;14.40;99.90;;;;;;5041428;28;20396;-75
2023/07/14 05:05:22;;;;;;;10.55;5.60;;;14.50;99.90;;;;;;5040436;28;20048;-75
2023/07/14 05:07:48;;;;;;;11.32;5.97;;;14.50;99.90;;;;;;5044986;28;20836;-76
2023/07/14 05:10:15;;;;;;;10.60;5.82;;;14.60;99.90;;;;;;5049550;28;20037;-74
2023/07/14 05:12:40;;;;;;;9.93;5.53;;;14.60;99.90;;;;;;5039409;28;20049;-74
2023/07/14 05:15:10;;;;;;;12.05;5.15;;;14.70;99.90;;;;;;5046084;28;20044;-78
2023/07/14 05:17:37;;;;;;;12.35;5.55;;;14.80;99.90;;;;;;5040959;28;20048;-72
2023/07/14 05:20:06;;;;;;;10.38;4.85;;;14.80;99.90;;;;;;5039408;28;20049;-75
2023/07/14 05:22:32;;;;;;;10.93;5.10;;;14.90;99.90;;;;;;5043285;28;20060;-72
2023/07/14 05:24:58;;;;;;;9.52;4.78;;;14.90;99.90;;;;;;5039853;28;20048;-81
2023/07/14 05:27:24;;;;;;;10.85;4.85;;;15.00;99.90;;;;;;5038637;28;20060;-79
2023/07/14 05:29:50;;;;;;;8.27;4.75;;;15.10;99.90;;;;;;5039055;28;20484;-74
2023/07/14 05:32:16;;;;;;;12.20;4.43;;;15.20;99.90;;;;;;5045057;28;20056;-81
2023/07/14 05:34:42;;;;;;;8.32;4.63;;;15.20;99.90;;;;;;5042741;28;20737;-80
2023/07/14 05:37:08;;;;;;;9.80;3.58;;;15.30;99.90;;;;;;5049014;28;20041;-78
2023/07/14 05:39:34;;;;;;;10.60;4.90;;;15.30;99.90;;;;;;5044080;28;20056;-72
2023/07/14 05:42:03;;;;;;;11.77;4.95;;;15.50;99.90;;;;;;5053096;28;20045;-72
2023/07/14 05:44:29;;;;;;;9.80;4.60;;;15.50;99.90;;;;;;5043641;28;20081;-71
2023/07/14 05:46:55;;;;;;;8.32;3.97;;;15.60;99.90;;;;;;5044830;28;20492;-72
2023/07/14 05:49:21;;;;;;;9.63;4.20;;;15.70;99.90;;;;;;5042969;28;20049;-72
2023/07/14 05:51:46;;;;;;;12.60;4.40;;;15.80;99.90;;;;;;5044805;28;20084;-72
2023/07/14 05:54:12;;;;;;;11.80;4.40;;;15.90;99.90;;;;;;5053113;28;20049;-72
2023/07/14 05:56:38;;;;;;;9.50;3.88;;;16.10;99.90;;;;;;5042426;28;20091;-71
2023/07/14 05:59:03;;;;;;;9.88;4.40;;;16.10;99.90;;;;;;5041482;28;20365;-72
2023/07/14 06:01:29;;;;;;;10.75;4.28;;;16.20;99.90;;;;;;5049455;28;20029;-72
2023/07/14 06:03:55;;;;;;;13.30;4.32;;;16.30;99.90;;;;;;5048368;28;20050;-74
2023/07/14 06:06:21;;;;;;;7.65;3.95;;;16.50;99.90;;;;;;5042710;28;20048;-70
2023/07/14 06:08:49;;;;;;;9.02;4.05;;;16.60;99.90;;;;;;5052569;28;20059;-72
2023/07/14 06:11:15;;;;;;;8.95;4.15;;;16.70;99.90;;;;;;5044805;28;20480;-72
2023/07/14 06:13:41;;;;;;;13.82;4.55;;;16.80;99.90;;;;;;5052410;28;20056;-72
2023/07/14 06:16:06;;;;;;;11.73;4.72;;;16.80;99.90;;;;;;5052581;28;20033;-73
2023/07/14 06:18:32;;;;;;;11.50;3.80;;;17.00;99.90;;;;;;5050903;28;20056;-73
2023/07/14 06:20:58;;;;;;;9.02;3.85;;;17.10;99.90;;;;;;5044737;28;20091;-72
2023/07/14 06:23:26;;;;;;;10.05;4.15;;;17.20;99.90;;;;;;5051124;28;20041;-72
2023/07/14 06:25:54;;;;;;;10.23;4.05;;;17.30;99.90;;;;;;5052565;28;20045;-74
2023/07/14 06:28:20;;;;;;;9.25;3.65;;;17.40;99.90;;;;;;5044179;28;20044;-72
2023/07/14 06:30:45;;;;;;;12.30;4.30;;;17.50;99.90;;;;;;5044478;28;20048;-78
2023/07/14 06:33:12;;;;;;;8.25;3.60;;;17.60;99.90;;;;;;5041931;28;20139;-86
2023/07/14 06:35:39;;;;;;;12.60;4.32;;;17.70;99.90;;;;;;5049761;28;20115;-82
2023/07/14 06:38:06;;;;;;;10.35;4.40;;;17.90;99.90;;;;;;5045288;28;20492;-82
2023/07/14 06:40:32;;;;;;;14.90;3.88;;;18.00;99.90;;;;;;5042821;28;20037;-73
2023/07/14 06:43:00;;;;;;;9.68;3.63;;;18.10;99.90;;;;;;5052331;28;20102;-82
2023/07/14 06:45:27;;;;;;;11.00;3.63;;;18.30;99.90;;;;;;5051854;28;20084;-79
2023/07/14 06:47:53;;;;;;;7.57;3.75;;;18.40;99.90;;;;;;5043591;28;20041;-74
2023/07/14 06:50:19;;;;;;;9.07;3.03;;;18.50;99.90;;;;;;5049967;28;20114;-88
2023/07/14 06:52:44;;;;;;;10.60;3.60;;;18.80;99.90;;;;;;5052153;28;20045;-86
2023/07/14 06:55:10;;;;;;;9.77;3.30;;;19.00;99.90;;;;;;5051738;28;20041;-80
2023/07/14 06:57:36;;;;;;;8.40;2.88;;;19.10;99.90;;;;;;5043751;28;20484;-88
2023/07/14 07:00:03;;;;;;;7.97;3.28;;;19.20;99.90;;;;;;5049500;28;20479;-89
2023/07/14 07:02:30;;;;;;;4.78;2.70;;;19.40;99.90;;;;;;5051811;28;20048;-80
2023/07/14 07:04:56;;;;;;;9.38;3.17;;;19.50;99.90;;;;;;5043516;28;20049;-79
2023/07/14 07:07:22;;;;;;;6.97;3.10;;;19.60;99.90;;;;;;5048286;28;20041;-78
2023/07/14 07:09:47;;;;;;;8.35;3.22;;;19.80;99.90;;;;;;5049399;28;20048;-90
2023/07/14 07:12:13;;;;;;;7.55;2.92;;;20.00;99.90;;;;;;5048432;28;20500;-92
2023/07/14 07:14:39;;;;;;;6.82;3.15;;;20.20;99.90;;;;;;5050296;28;20041;-84
2023/07/14 07:17:05;;;;;;;9.05;3.08;;;20.40;99.90;;;;;;5046552;28;20033;-71
2023/07/14 07:19:32;;;;;;;10.85;3.47;;;20.60;99.90;;;;;;5028971;28;20056;-86
2023/07/14 07:21:58;;;;;;;10.90;3.53;;;20.70;99.90;;;;;;5052241;28;20076;-89
2023/07/14 07:24:24;;;;;;;12.10;3.80;;;20.70;99.90;;;;;;5042302;28;20126;-92
2023/07/14 07:26:50;;;;;;;7.28;3.60;;;20.70;99.90;;;;;;5050780;28;20048;-85
2023/07/14 07:29:16;;;;;;;8.38;3.70;;;20.70;99.90;;;;;;5044228;28;20037;-84
2023/07/14 07:31:41;;;;;;;9.18;4.55;;;20.80;99.90;;;;;;5044223;28;20057;-88
2023/07/14 07:34:08;;;;;;;9.95;4.45;;;20.90;99.90;;;;;;5049095;28;20048;-86
2023/07/14 07:36:34;;;;;;;8.63;4.45;;;20.90;99.90;;;;;;5038789;28;20037;-88
2023/07/14 07:39:01;;;;;;;8.00;4.50;;;21.00;99.90;;;;;;5038980;28;20053;-77
2023/07/14 07:41:27;;;;;;;11.32;4.50;;;21.20;99.90;;;;;;5052678;28;20040;-92
2023/07/14 07:43:53;;;;;;;9.38;4.22;;;21.30;99.90;;;;;;5043403;28;20052;-91
2023/07/14 07:46:21;;;;;;;9.85;4.45;;;21.40;99.90;;;;;;5049492;28;20047;-87
2023/07/14 07:48:47;;;;;;;12.65;4.40;;;21.50;99.90;;;;;;5041876;28;20179;-79
2023/07/14 07:51:13;;;;;;;8.73;4.15;;;21.80;99.90;;;;;;5042735;28;20486;-80
2023/07/14 07:53:39;;;;;;;10.65;4.70;;;21.70;99.90;;;;;;5043146;28;20053;-88
2023/07/14 07:56:05;;;;;;;8.98;4.32;;;21.80;99.90;;;;;;5042239;28;20133;-87
2023/07/14 07:58:30;;;;;;;13.25;3.88;;;22.00;99.90;;;;;;5040957;28;20120;-84
2023/07/14 08:01:03;;;;;;;7.30;3.50;;;22.20;99.90;;;;;;5022003;28;20488;-87
2023/07/14 08:03:29;;;;;;;8.20;3.80;;;22.10;99.90;;;;;;5038864;28;20390;-77
2023/07/14 08:06:00;;;;;;;11.52;3.97;;;22.30;99.90;;;;;;5042557;28;20467;-89
2023/07/14 08:08:25;;;;;;;6.72;3.63;;;22.30;99.90;;;;;;5042114;28;20500;-86
2023/07/14 08:10:51;;;;;;;7.88;4.03;;;22.40;99.90;;;;;;5039529;28;20052;-85
2023/07/14 08:13:17;;;;;;;9.38;3.88;;;22.40;99.90;;;;;;5037707;28;20033;-87
2023/07/14 08:15:42;;;;;;;10.52;3.45;;;22.50;99.90;;;;;;5043727;28;20044;-86
2023/07/14 08:18:09;;;;;;;7.82;3.70;;;22.60;99.90;;;;;;5045782;28;20520;-77
2023/07/14 08:20:37;;;;;;;8.45;3.45;;;22.50;99.90;;;;;;5046693;28;20706;-79
2023/07/14 08:23:09;;;;;;;5.68;3.35;;;22.50;99.90;;;;;;5037789;28;20041;-77
2023/07/14 08:25:34;;;;;;;6.53;2.60;;;22.60;99.90;;;;;;5041242;28;20045;-77
2023/07/14 08:28:00;;;;;;;6.38;2.80;;;22.60;99.90;;;;;;5048695;28;20056;-68
2023/07/14 08:30:26;;;;;;;7.47;2.75;;;22.50;99.90;;;;;;5045621;28;20537;-70
2023/07/14 08:32:51;;;;;;;6.15;3.05;;;22.50;99.90;;;;;;5045260;28;20416;-70
2023/07/14 08:35:19;;;;;;;6.18;2.65;;;22.50;99.90;;;;;;5041557;28;20053;-70
2023/07/14 08:37:45;;;;;;;7.35;2.80;;;22.70;99.90;;;;;;5041405;28;20423;-73
2023/07/14 08:40:17;;;;;;;6.57;2.60;;;22.70;99.90;;;;;;5038143;28;20102;-71
2023/07/14 08:43:20;;;;;;;7.22;2.10;;;22.90;99.90;;;;;;5038107;28;20049;-72
2023/07/14 08:46:05;;;;;;;5.22;2.33;;;23.10;99.90;;;;;;5043991;28;20553;-70
2023/07/14 08:48:40;;;;;;;9.02;2.63;;;23.20;99.90;;;;;;5033056;28;20087;-72
2023/07/14 08:51:15;;;;;;;10.00;3.05;;;23.30;99.90;;;;;;5048685;28;20492;-69
2023/07/14 08:53:49;;;;;;;6.07;2.53;;;23.50;99.90;;;;;;5042078;28;20040;-69
2023/07/14 08:56:18;;;;;;;5.10;2.30;;;23.60;99.90;;;;;;5040782;28;20487;-72
2023/07/14 08:58:46;;;;;;;5.35;2.10;;;23.60;99.90;;;;;;5041448;28;20492;-71
2023/07/14 09:01:19;;;;;;;6.65;2.10;;;23.70;99.90;;;;;;5041166;28;20122;-70
2023/07/14 09:03:46;;;;;;;4.63;1.75;;;23.70;99.90;;;;;;5038086;28;20496;-75
2023/07/14 09:06:34;;;;;;;4.88;2.15;;;23.70;99.90;;;;;;5036836;28;20665;-73
2023/07/14 09:09:00;;;;;;;4.35;2.10;;;23.40;99.90;;;;;;5044537;28;20116;-76
2023/07/14 09:11:38;;;;;;;6.78;1.98;;;23.30;99.90;;;;;;5046748;28;20055;-75
2023/07/14 09:14:26;;;;;;;4.63;1.85;;;23.40;99.90;;;;;;5042013;28;20041;-71
2023/07/14 09:17:03;;;;;;;4.82;1.85;;;23.60;99.90;;;;;;5046010;28;20109;-73
2023/07/14 09:20:06;;;;;;;6.90;1.90;;;23.80;99.90;;;;;;5039459;28;20145;-75
2023/07/14 09:23:10;;;;;;;22.55;2.30;;;24.00;99.90;;;;;;5044737;28;20045;-75
2023/07/14 09:26:05;;;;;;;5.28;1.60;;;24.10;99.90;;;;;;5044357;28;20037;-73
2023/07/14 09:28:38;;;;;;;5.18;1.80;;;24.20;99.90;;;;;;5043388;28;20073;-77
2023/07/14 09:31:23;;;;;;;4.75;2.15;;;24.30;99.90;;;;;;5044379;28;20591;-76
2023/07/14 09:33:57;;;;;;;4.55;2.00;;;24.00;99.90;;;;;;5047119;28;20056;-77
2023/07/14 09:36:23;;;;;;;6.80;2.15;;;24.10;99.90;;;;;;5044243;28;20388;-74
2023/07/14 09:38:53;;;;;;;3.97;2.00;;;24.20;99.90;;;;;;5045430;28;20037;-76
2023/07/14 09:41:24;;;;;;;4.70;2.22;;;24.20;99.90;;;;;;5037875;28;20501;-75
2023/07/14 09:43:49;;;;;;;7.28;2.30;;;23.70;99.90;;;;;;5036243;28;20044;-69
2023/07/14 09:46:19;;;;;;;5.90;2.00;;;23.80;99.90;;;;;;5039030;28;20050;-76
2023/07/14 09:48:50;;;;;;;4.63;1.80;;;23.90;99.90;;;;;;5048369;28;20499;-71
2023/07/14 09:51:25;;;;;;;4.38;1.98;;;24.20;99.90;;;;;;5040703;28;20045;-71
2023/07/14 09:54:00;;;;;;;5.88;2.00;;;24.20;99.90;;;;;;5041091;28;20044;-70
2023/07/14 09:56:30;;;;;;;5.40;1.67;;;24.30;99.80;;;;;;5039209;28;20072;-78
2023/07/14 09:59:02;;;;;;;4.25;2.17;;;24.50;99.90;;;;;;5042760;28;20102;-70
2023/07/14 10:01:32;;;;;;;7.47;2.50;;;24.50;99.60;;;;;;5049239;28;20048;-70
2023/07/14 10:04:16;;;;;;;8.07;2.42;;;24.70;99.90;;;;;;5040788;28;20060;-70
2023/07/14 10:06:42;;;;;;;7.60;2.40;;;24.80;99.90;;;;;;5038259;28;20095;-69
2023/07/14 10:09:13;;;;;;;5.90;2.10;;;24.60;99.70;;;;;;5042574;28;20079;-70
2023/07/14 10:11:45;;;;;;;8.43;2.20;;;24.80;99.70;;;;;;5048545;28;20126;-70
2023/07/14 10:14:26;;;;;;;9.00;2.30;;;24.90;99.90;;;;;;5043295;28;20108;-72
2023/07/14 10:16:56;;;;;;;6.50;2.15;;;24.90;99.10;;;;;;5038355;28;20042;-70
2023/07/14 10:19:43;;;;;;;6.47;2.53;;;25.00;99.50;;;;;;5040158;28;20057;-69
2023/07/14 10:22:17;;;;;;;7.70;2.90;;;25.10;99.40;;;;;;5041978;28;20099;-68
2023/07/14 10:24:47;;;;;;;7.70;3.03;;;25.00;99.40;;;;;;5047436;28;20455;-69
2023/07/14 10:27:23;;;;;;;6.80;2.63;;;25.00;99.20;;;;;;5044253;28;20049;-69
2023/07/14 10:30:06;;;;;;;6.15;2.13;;;24.40;98.00;;;;;;5051840;28;20037;-73
2023/07/14 10:32:51;;;;;;;8.05;2.50;;;24.10;99.10;;;;;;5040691;28;20127;-69
2023/07/14 10:35:24;;;;;;;5.80;2.15;;;24.40;99.10;;;;;;5050510;28;20045;-68
2023/07/14 10:38:14;;;;;;;5.85;2.60;;;24.60;98.60;;;;;;5044416;28;20488;-70
2023/07/14 10:40:47;;;;;;;5.95;2.20;;;24.80;98.60;;;;;;5045015;28;20062;-69
2023/07/14 10:43:25;;;;;;;6.35;2.40;;;24.80;98.90;;;;;;5051672;28;20040;-67
2023/07/14 10:45:56;;;;;;;5.25;2.45;;;25.00;99.30;;;;;;5043989;28;20171;-69
2023/07/14 10:48:30;;;;;;;4.88;2.05;;;24.90;98.10;;;;;;5041080;28;20089;-69
2023/07/14 10:51:10;;;;;;;6.95;2.60;;;24.90;99.10;;;;;;5043663;28;20400;-73
2023/07/14 10:53:48;;;;;;;5.88;2.42;;;24.60;98.80;;;;;;5043578;28;20049;-72
2023/07/14 10:56:31;;;;;;;9.80;2.47;;;24.50;98.40;;;;;;5051784;28;20077;-75
2023/07/14 10:59:04;;;;;;;7.82;2.60;;;24.20;98.70;;;;;;5045894;28;20053;-79
2023/07/14 11:01:36;;;;;;;6.07;2.58;;;24.10;98.70;;;;;;5043026;28;20473;-77
2023/07/14 11:04:29;;;;;;;7.82;3.13;;;24.10;98.60;;;;;;5049338;28;20047;-75
2023/07/14 11:06:56;;;;;;;6.70;2.55;;;24.20;99.20;;;;;;5044119;28;20072;-77
2023/07/14 11:09:22;;;;;;;5.35;2.60;;;24.20;98.70;;;;;;5043182;28;20649;-71
2023/07/14 11:11:56;;;;;;;7.93;2.72;;;24.30;98.90;;;;;;5041579;28;20132;-74
2023/07/14 11:14:35;;;;;;;8.60;2.65;;;24.40;98.40;;;;;;5046473;28;20797;-71
2023/07/14 11:17:25;;;;;;;4.55;2.35;;;24.60;98.80;;;;;;5043606;28;20044;-77
2023/07/14 11:20:08;;;;;;;7.75;2.92;;;24.70;98.60;;;;;;5040641;28;20092;-76
2023/07/14 11:23:08;;;;;;;6.20;2.47;;;24.40;98.40;;;;;;5041881;28;20047;-76
2023/07/14 11:25:48;;;;;;;5.95;2.10;;;24.20;97.80;;;;;;5047053;28;20041;-73
2023/07/14 11:28:36;;;;;;;7.45;2.53;;;24.30;98.30;;;;;;5043887;28;20120;-74
2023/07/14 11:31:30;;;;;;;6.40;2.63;;;24.60;98.20;;;;;;5040275;28;20123;-72
2023/07/14 11:34:16;;;;;;;5.75;2.22;;;24.70;98.20;;;;;;5046765;28;20063;-73
2023/07/14 11:37:16;;;;;;;7.22;2.30;;;24.90;98.50;;;;;;5043894;28;20106;-73
2023/07/14 11:39:56;;;;;;;6.72;2.20;;;24.90;97.40;;;;;;5046020;28;20466;-76
2023/07/14 11:42:29;;;;;;;5.97;2.80;;;24.90;97.70;;;;;;5041135;28;20120;-71
2023/07/14 11:44:57;;;;;;;4.63;2.22;;;24.90;97.80;;;;;;5042334;28;20048;-71
2023/07/14 11:47:35;;;;;;;4.43;2.58;;;24.90;98.30;;;;;;5040726;28;20045;-70
2023/07/14 11:50:08;;;;;;;6.03;2.80;;;25.00;97.80;;;;;;5050185;28;20479;-73
2023/07/14 11:52:38;;;;;;;5.88;2.60;;;25.00;97.70;;;;;;5043013;28;20048;-73
2023/07/14 11:55:24;;;;;;;5.93;2.08;;;25.10;97.80;;;;;;5042098;28;20128;-74
2023/07/14 11:58:10;;;;;;;6.22;2.70;;;25.40;96.40;;;;;;5043789;28;20107;-69
2023/07/14 12:00:41;;;;;;;7.07;3.00;;;25.30;96.50;;;;;;5047406;28;20060;-68
2023/07/14 12:03:30;;;;;;;4.07;2.47;;;25.20;97.20;;;;;;5045796;28;20090;-71
2023/07/14 12:06:20;;;;;;;6.15;2.80;;;25.10;97.30;;;;;;5043533;28;20048;-73
2023/07/14 12:09:04;;;;;;;4.72;2.55;;;24.90;96.90;;;;;;5038996;28;20511;-75
2023/07/14 12:11:43;;;;;;;7.03;2.83;;;24.90;97.30;;;;;;5049635;28;20411;-69
2023/07/14 12:14:27;;;;;;;5.47;2.92;;;24.80;96.80;;;;;;5041919;28;20052;-72
2023/07/14 12:16:53;;;;;;;5.47;2.33;;;24.70;96.70;;;;;;5042490;28;20053;-74
2023/07/14 12:19:31;;;;;;;5.55;2.28;;;24.50;96.90;;;;;;5038686;28;20049;-76
2023/07/14 12:22:05;;;;;;;4.72;2.45;;;24.40;96.80;;;;;;5041464;28;20552;-70
2023/07/14 12:24:39;;;;;;;8.20;3.28;;;24.30;97.30;;;;;;5042230;28;20041;-70
2023/07/14 12:27:27;;;;;;;6.00;2.67;;;24.20;97.50;;;;;;5041792;28;20053;-71
2023/07/14 12:30:14;;;;;;;6.15;3.63;;;24.20;97.00;;;;;;5049276;28;20095;-69
2023/07/14 12:32:40;;;;;;;6.50;2.80;;;24.20;97.40;;;;;;5038521;28;20054;-71
2023/07/14 12:35:15;;;;;;;9.07;3.70;;;24.20;97.50;;;;;;5039555;28;20087;-72
2023/07/14 12:37:41;;;;;;;4.68;2.38;;;24.20;97.40;;;;;;5046542;28;20466;-72
2023/07/14 12:40:21;;;;;;;6.53;3.00;;;24.10;97.70;;;;;;5048140;28;20052;-68
2023/07/14 12:42:48;;;;;;;6.72;3.60;;;24.20;97.30;;;;;;5038189;28;20041;-67
2023/07/14 12:45:17;;;;;;;10.55;3.22;;;24.20;97.70;;;;;;5039870;28;20053;-71
2023/07/14 12:47:46;;;;;;;6.80;3.42;;;24.20;98.00;;;;;;5040197;28;20112;-70
2023/07/14 12:50:18;;;;;;;8.73;3.30;;;24.30;98.10;;;;;;5049088;28;20495;-69
2023/07/14 12:52:44;;;;;;;6.75;3.35;;;24.30;98.10;;;;;;5041324;28;20037;-69
2023/07/14 12:55:19;;;;;;;7.47;3.55;;;24.40;98.20;;;;;;5041221;28;20048;-68
2023/07/14 12:57:48;;;;;;;9.02;3.83;;;24.30;98.00;;;;;;5045318;28;20223;-69
2023/07/14 13:00:21;;;;;;;8.10;3.25;;;24.30;97.90;;;;;;5037988;28;20522;-68
2023/07/14 13:02:48;;;;;;;7.53;3.30;;;24.30;97.40;;;;;;5041983;28;20045;-68